KUUU

Details ICAO KUUU
Name NEWPORT STATE
Region United States
Timezone America/New_York (UTC-5.0)
Plans Departing 10
Arriving 5
Stats Elevation 171 ft / 52 m (AMSL)
Location 41.532518° -71.281594°
Runways 2
Magnetic Variation 14.348° W
Sunrise 2017-12-18 12:08:06 UTC / 2017-12-18 07:08:06 Local
Sunset 2017-12-18 21:18:16 UTC / 2017-12-18 16:18:16 Local
Advertisement - Login to hide

Runways

ID Width Length Bearing (true) Bearing (mag) Surface Threshold Offset Overrun Length
04 75 ft / 23 m 3,001 ft / 915 m 23.75° 38.10° Asphalt 0 ft / 0 m 0 ft / 0 m
16 75 ft / 23 m 2,625 ft / 800 m 143.62° 157.97° Asphalt 0 ft / 0 m 0 ft / 0 m
22 75 ft / 23 m 3,001 ft / 915 m 203.75° 218.10° Asphalt 0 ft / 0 m 0 ft / 0 m
34 75 ft / 23 m 2,625 ft / 800 m 323.62° 337.97° Asphalt 243 ft / 74 m 0 ft / 0 m

Map

Weather


0- 5 10 15 20 25 30 35+ Temperature / ° C

Clouds and Precipitation
Forecast for 2017-12-18 12:00 UTC. Updated 13 minutes ago

Ground ~20,000 ft ~40,000 ft Winds

METAR

KUUU 180853Z AUTO 09003KT 10SM OVC027 M03/M12 A3019 RMK AO2 SLP226 T10281117 58008

TAF

Not found

Frequencies

Recorded 132.07 MHz ASOS
Clearance 127.25 MHz CLNC DEL
Unicom 122.80 MHz CTAF/UNICOM
Approach 128.70 MHz PROVIDENCE APP/DEP
Warning: Do not use this data for real-world aviation or navigation. No guarantee of current accuracy is given.